»·PEaware :: SWA343 KSNA-KSFO

SWA343 :: KSNA-KSFO

FLIGHT INFORMATION

Flight Status: Arrived
Operator:
Southwest Airlines
More flights by this operator :: More flights under this callsign
Pilot: Hyatt B. (30410)
Aircraft: BOEING 737-800
(B738)
More flights by this aircraft type
Origin: KSNA John Wayne-Orange Co
United States
Destination: KSFO San Francisco Intl
United States
More flights between these airports :: More routes between these airports
Route: HHERO3 IKAYE RIZIN SPLNT STOKD SERFR SERFR4
File this flight plan on PilotEdge
Remarks:
Altitude:
(Current/Filed)
34,000ft
Speed:
(Current/Filed)
430kts
Departed: 06-Aug-20 03:25 PM
Arrived: 06-Aug-20 04:25 PM
Distance/Time
Traveled:
323nm/1:00
Distance/Time
To Go:
Arrived

Flight Plot

Page will automatically refresh every two minutes.

Flight plan parsing failed; only flown route is shown


Map Options




Map Legend


Flown Route
Filed Route
Departure Airport
Arrival Airport
Navaid (VOR, NDB)
Fix

Horizontal Profiles

Position Reports

Time Latitude Longitude Heading Altitude Ground
Speed
06-Aug-20 14:38 33.679005 -117.862571 117 66ft 0kts
06-Aug-20 14:39 33.679005 -117.862571 117 66ft 0kts
06-Aug-20 14:40 33.679005 -117.862571 117 66ft 0kts
06-Aug-20 14:41 33.679005 -117.862571 117 66ft 0kts
06-Aug-20 14:42 33.679005 -117.862571 117 66ft 0kts
06-Aug-20 14:43 33.679005 -117.862571 117 66ft 0kts
06-Aug-20 14:44 33.679005 -117.862571 117 66ft 0kts
06-Aug-20 14:45 33.679005 -117.862571 117 66ft 0kts
06-Aug-20 14:46 33.679005 -117.862571 117 66ft 0kts
06-Aug-20 14:47 33.679005 -117.862571 117 66ft 0kts
06-Aug-20 14:48 33.679005 -117.862571 117 66ft 0kts
06-Aug-20 14:49 33.679005 -117.862571 117 66ft 0kts
06-Aug-20 14:50 33.679005 -117.862571 117 66ft 0kts
06-Aug-20 14:51 33.679005 -117.862571 117 66ft 0kts
06-Aug-20 14:52 33.679005 -117.862571 117 66ft 0kts
06-Aug-20 14:53 33.679005 -117.862571 117 66ft 0kts
06-Aug-20 14:54 33.679005 -117.862571 117 66ft 0kts
06-Aug-20 14:55 33.679005 -117.862571 117 66ft 0kts
06-Aug-20 14:56 33.679005 -117.862571 117 66ft 0kts
06-Aug-20 14:57 33.679005 -117.862571 117 66ft 0kts
06-Aug-20 14:58 33.679005 -117.862571 117 66ft 0kts
06-Aug-20 14:59 33.679005 -117.862571 117 66ft 0kts
06-Aug-20 15:00 33.679005 -117.862571 117 66ft 0kts
06-Aug-20 15:01 33.679005 -117.862571 117 66ft 0kts
06-Aug-20 15:02 33.679005 -117.862571 117 66ft 0kts
06-Aug-20 15:03 33.679005 -117.862571 117 66ft 0kts
06-Aug-20 15:04 33.679005 -117.862571 117 66ft 0kts
06-Aug-20 15:05 33.679005 -117.862571 117 66ft 0kts
06-Aug-20 15:06 33.679005 -117.862571 117 66ft 0kts
06-Aug-20 15:07 33.679005 -117.862571 117 66ft 0kts
06-Aug-20 15:08 33.679005 -117.862571 117 66ft 0kts
06-Aug-20 15:09 33.679005 -117.862571 117 66ft 0kts
06-Aug-20 15:10 33.679005 -117.862571 117 66ft 0kts
06-Aug-20 15:11 33.679005 -117.862571 117 66ft 0kts
06-Aug-20 15:12 33.679005 -117.862571 117 66ft 0kts
06-Aug-20 15:13 33.679005 -117.862571 117 66ft 0kts
06-Aug-20 15:14 33.679005 -117.862571 117 66ft 0kts
06-Aug-20 15:15 33.679005 -117.862571 117 66ft 0kts
06-Aug-20 15:16 33.679005 -117.862571 117 66ft 0kts
06-Aug-20 15:17 33.679077 -117.862735 117 66ft 2kts
06-Aug-20 15:18 33.679138 -117.863315 35 66ft 1kts
06-Aug-20 15:19 33.679055 -117.863366 26 66ft 0kts
06-Aug-20 15:20 33.679070 -117.863356 27 66ft 0kts
06-Aug-20 15:21 33.680179 -117.862675 6 66ft 6kts
06-Aug-20 15:22 33.680599 -117.862977 300 66ft 1kts
06-Aug-20 15:23 33.681353 -117.864944 266 66ft 5kts
06-Aug-20 15:24 33.664711 -117.875910 209 211ft 186kts
06-Aug-20 15:25 33.615104 -117.906585 195 1804ft 201kts
06-Aug-20 15:26 33.565936 -117.907390 196 3639ft 220kts
06-Aug-20 15:27 33.520468 -117.956760 225 6606ft 246kts
06-Aug-20 15:28 33.471965 -118.019919 237 9359ft 276kts
06-Aug-20 15:29 33.431534 -118.107205 249 11594ft 332kts
06-Aug-20 15:30 33.424223 -118.218336 279 14711ft 347kts
06-Aug-20 15:31 33.452951 -118.330321 294 17519ft 363kts
06-Aug-20 15:32 33.500170 -118.439380 293 20004ft 376kts
06-Aug-20 15:33 33.559384 -118.545735 304 22121ft 392kts
06-Aug-20 15:34 33.626291 -118.650983 304 23987ft 404kts
06-Aug-20 15:35 33.714808 -118.737532 325 25675ft 424kts
06-Aug-20 15:36 33.819738 -118.806928 328 27195ft 436kts
06-Aug-20 15:37 33.928194 -118.875381 328 28629ft 445kts
06-Aug-20 15:38 34.038602 -118.944499 328 29948ft 453kts
06-Aug-20 15:39 34.141718 -119.026884 310 31522ft 440kts
06-Aug-20 15:40 34.212477 -119.144724 298 32938ft 431kts
06-Aug-20 15:41 34.275660 -119.267285 297 34013ft 432kts
06-Aug-20 15:42 34.338966 -119.390515 297 34009ft 431kts
06-Aug-20 15:43 34.404607 -119.511820 304 34010ft 435kts
06-Aug-20 15:44 34.486061 -119.621575 309 34009ft 438kts
06-Aug-20 15:45 34.570462 -119.727590 309 34009ft 438kts
06-Aug-20 15:46 34.655718 -119.833329 309 34009ft 438kts
06-Aug-20 15:47 34.741064 -119.939069 310 34009ft 438kts
06-Aug-20 15:48 34.826283 -120.044865 310 34012ft 438kts
06-Aug-20 15:49 34.911218 -120.151059 308 34028ft 438kts
06-Aug-20 15:50 34.996396 -120.257666 311 34045ft 442kts
06-Aug-20 15:51 35.082390 -120.364890 312 34042ft 443kts
06-Aug-20 15:52 35.172379 -120.467753 315 34021ft 444kts
06-Aug-20 15:53 35.263171 -120.569396 315 34009ft 444kts
06-Aug-20 15:54 35.353909 -120.671354 314 34009ft 444kts
06-Aug-20 15:55 35.444737 -120.773762 314 33996ft 444kts
06-Aug-20 15:56 35.540185 -120.870057 320 33981ft 446kts
06-Aug-20 15:57 35.639038 -120.962262 320 33981ft 446kts
06-Aug-20 15:58 35.737319 -121.053801 321 33981ft 441kts
06-Aug-20 15:59 35.834434 -121.144446 321 33981ft 439kts
06-Aug-20 16:00 35.931581 -121.235370 322 33983ft 440kts
06-Aug-20 16:01 36.028788 -121.326622 322 34001ft 439kts
06-Aug-20 16:02 36.130425 -121.412640 327 32188ft 447kts
06-Aug-20 16:03 36.233681 -121.493462 327 29518ft 429kts
06-Aug-20 16:04 36.331423 -121.569992 327 27333ft 405kts
06-Aug-20 16:05 36.424014 -121.642665 327 25207ft 385kts
06-Aug-20 16:06 36.513228 -121.712968 326 23235ft 384kts
06-Aug-20 16:07 36.600543 -121.782233 326 21202ft 364kts
06-Aug-20 16:08 36.684034 -121.848422 326 19228ft 350kts
06-Aug-20 16:09 36.771153 -121.900257 342 17257ft 345kts
06-Aug-20 16:11 36.862270 -121.927886 346 15370ft 332kts
06-Aug-20 16:12 36.950880 -121.952842 343 13507ft 321kts
06-Aug-20 16:13 37.034584 -121.985231 341 11683ft 312kts
06-Aug-20 16:14 37.114707 -122.016546 341 10562ft 286kts
06-Aug-20 16:15 37.187282 -122.044944 341 9651ft 269kts
06-Aug-20 16:16 37.259026 -122.073070 341 8307ft 271kts
06-Aug-20 16:17 37.330009 -122.101021 341 6844ft 256kts
06-Aug-20 16:18 37.397645 -122.126728 343 5569ft 255kts
06-Aug-20 16:19 37.462247 -122.148042 343 4388ft 227kts
06-Aug-20 16:20 37.520136 -122.168272 334 3311ft 206kts
06-Aug-20 16:21 37.556265 -122.221359 297 2452ft 204kts
06-Aug-20 16:22 37.575897 -122.273728 293 1778ft 140kts
06-Aug-20 16:23 37.594786 -122.317705 295 828ft 139kts
06-Aug-20 16:24 37.612076 -122.359221 296 29ft 124kts
06-Aug-20 16:25 37.617963 -122.373290 297 20ft 18kts
06-Aug-20 16:26 37.619928 -122.378876 247 35ft 8kts
06-Aug-20 16:27 37.619586 -122.379418 228 35ft 0kts
06-Aug-20 16:28 37.618333 -122.379830 177 35ft 5kts
06-Aug-20 16:29 37.617865 -122.380631 257 36ft 0kts
06-Aug-20 16:29 37.617865 -122.380631 257 36ft 0kts
06-Aug-20 16:31 37.617865 -122.380631 257 36ft 0kts

Navigation Log

Ident Type
Flight plan parsing failed, navigation log unavailable